createdAt,value
2022-08-11T00:00:17.303Z,2.85
2022-08-11T00:03:15.440Z,3.30
2022-08-11T00:06:11.375Z,2.83
2022-08-11T00:09:23.033Z,4.40
2022-08-11T00:12:19.842Z,1.05
2022-08-11T00:15:15.090Z,2.17
2022-08-11T00:18:11.314Z,2.10
2022-08-11T00:21:06.858Z,2.72
2022-08-11T00:24:05.160Z,1.30
2022-08-11T00:26:59.828Z,1.45
2022-08-11T00:29:58.073Z,1.45
2022-08-11T00:33:00.110Z,2.17
2022-08-11T00:36:01.793Z,3.55
2022-08-11T00:39:04.963Z,1.30
2022-08-11T00:42:06.703Z,1.08
2022-08-11T00:45:13.179Z,1.70
2022-08-11T00:48:38.153Z,3.05
2022-08-11T00:51:57.665Z,4.03
2022-08-11T00:55:25.878Z,2.97
2022-08-11T00:58:32.419Z,1.50
2022-08-11T01:02:00.176Z,1.70
2022-08-11T01:05:48.314Z,1.73
2022-08-11T01:09:08.711Z,1.25
2022-08-11T01:12:30.791Z,0.95
2022-08-11T01:15:57.030Z,2.35
2022-08-11T01:19:27.709Z,1.10
2022-08-11T01:22:59.315Z,3.03
2022-08-11T01:26:18.330Z,1.85
2022-08-11T01:29:49.190Z,1.60
2022-08-11T01:33:06.343Z,2.75
2022-08-11T01:36:33.387Z,2.15
2022-08-11T01:40:04.393Z,2.35
2022-08-11T01:43:38.398Z,1.95
2022-08-11T01:46:45.217Z,2.55
2022-08-11T01:50:09.310Z,1.45
2022-08-11T01:53:30.273Z,1.67
2022-08-11T01:57:04.619Z,4.35
2022-08-11T02:00:21.717Z,2.33
2022-08-11T02:03:54.331Z,3.25
2022-08-11T02:07:09.009Z,2.25
2022-08-11T02:10:39.113Z,0.98
2022-08-11T02:14:03.891Z,1.60
2022-08-11T02:17:22.999Z,2.45
2022-08-11T02:20:46.207Z,0.70
2022-08-11T02:24:16.221Z,3.78
2022-08-11T02:27:26.458Z,4.43
2022-08-11T02:30:27.760Z,0.93
2022-08-11T02:33:28.489Z,2.22
2022-08-11T02:36:30.171Z,0.73
2022-08-11T02:39:33.682Z,3.55
2022-08-11T02:42:46.836Z,0.45
2022-08-11T02:45:55.876Z,2.35
2022-08-11T02:49:24.335Z,3.47
2022-08-11T02:52:21.722Z,3.35
2022-08-11T02:55:50.841Z,3.90
2022-08-11T02:59:35.517Z,1.33
2022-08-11T03:02:48.515Z,2.65
2022-08-11T03:06:19.702Z,1.85
2022-08-11T03:09:15.280Z,2.35
2022-08-11T03:12:40.566Z,1.15
2022-08-11T03:16:31.224Z,4.80
2022-08-11T03:19:44.069Z,1.48
2022-08-11T03:23:01.319Z,1.45
2022-08-11T03:26:15.992Z,1.25
2022-08-11T03:29:25.052Z,3.00
2022-08-11T03:32:38.285Z,2.55
2022-08-11T03:35:38.882Z,2.25
2022-08-11T03:38:59.286Z,2.05
2022-08-11T03:42:12.025Z,1.00
2022-08-11T03:45:40.731Z,3.17
2022-08-11T03:48:47.923Z,1.27
2022-08-11T03:52:01.858Z,4.57
2022-08-11T03:55:17.636Z,2.38
2022-08-11T03:58:30.973Z,1.58
2022-08-11T04:02:09.547Z,3.53
2022-08-11T04:05:48.642Z,1.75
2022-08-11T04:09:04.626Z,3.58
2022-08-11T04:12:35.915Z,1.33
2022-08-11T04:16:12.957Z,3.65
2022-08-11T04:19:34.802Z,1.25
2022-08-11T04:22:32.498Z,3.83
2022-08-11T04:26:18.813Z,1.40
2022-08-11T04:30:03.848Z,1.95
2022-08-11T04:33:26.006Z,1.70
2022-08-11T04:37:22.957Z,4.43
2022-08-11T04:40:45.008Z,1.45
2022-08-11T04:44:14.997Z,1.45
2022-08-11T04:48:01.719Z,1.20
2022-08-11T04:51:53.958Z,4.30
2022-08-11T04:55:31.811Z,1.90
2022-08-11T04:59:09.876Z,2.70
2022-08-11T05:02:42.497Z,2.80
2022-08-11T05:06:08.795Z,1.88
2022-08-11T05:09:18.684Z,4.57
2022-08-11T05:12:22.159Z,2.55
2022-08-11T05:15:42.399Z,2.28
2022-08-11T05:18:58.203Z,3.08
2022-08-11T05:22:18.667Z,1.27
2022-08-11T05:26:43.728Z,1.92
2022-08-11T05:29:19.926Z,1.10
2022-08-11T05:32:37.816Z,2.28
2022-08-11T05:36:02.189Z,2.15
2022-08-11T05:39:36.309Z,2.88
2022-08-11T05:42:51.602Z,2.83
2022-08-11T05:46:07.109Z,4.43
2022-08-11T05:49:21.987Z,2.03
2022-08-11T05:52:38.341Z,4.07
2022-08-11T05:56:03.455Z,2.00
2022-08-11T05:58:59.281Z,1.67
2022-08-11T06:01:55.002Z,3.33
2022-08-11T06:04:58.604Z,3.72
2022-08-11T06:07:57.614Z,2.00
2022-08-11T06:10:53.542Z,2.90
2022-08-11T06:13:49.164Z,1.38
2022-08-11T06:16:50.933Z,0.63
2022-08-11T06:19:50.178Z,1.95
2022-08-11T06:22:52.504Z,2.08
2022-08-11T06:25:48.665Z,3.42
2022-08-11T06:28:48.467Z,4.55
2022-08-11T06:31:43.584Z,0.98
2022-08-11T06:35:15.099Z,4.22
2022-08-11T06:38:17.610Z,1.48
2022-08-11T06:41:33.793Z,2.42
2022-08-11T06:44:54.913Z,1.48
2022-08-11T06:47:50.465Z,1.75
2022-08-11T06:51:10.424Z,2.83
2022-08-11T06:54:05.805Z,1.65
2022-08-11T06:57:35.456Z,0.93
2022-08-11T07:00:34.795Z,1.88
2022-08-11T07:03:34.426Z,2.58
2022-08-11T07:06:50.566Z,0.70
2022-08-11T07:10:10.197Z,1.98
2022-08-11T07:13:44.537Z,3.30
2022-08-11T07:16:43.574Z,1.13
2022-08-11T07:20:00.354Z,1.27
2022-08-11T07:23:19.320Z,2.53
2022-08-11T07:26:33.172Z,2.88
2022-08-11T07:29:30.355Z,0.93
2022-08-11T07:32:30.202Z,1.40
2022-08-11T07:35:44.344Z,1.88
2022-08-11T07:38:47.536Z,0.88
2022-08-11T07:41:43.218Z,2.92
2022-08-11T07:45:01.489Z,2.67
2022-08-11T07:51:27.738Z,3.08
2022-08-11T07:54:22.942Z,1.73
2022-08-11T07:57:59.479Z,4.13
2022-08-11T08:01:22.543Z,1.75
2022-08-11T08:04:38.325Z,3.90
2022-08-11T08:07:52.065Z,2.72
2022-08-11T08:11:08.195Z,3.85
2022-08-11T08:14:21.566Z,1.45
2022-08-11T08:17:35.325Z,2.20
2022-08-11T08:20:37.060Z,1.83
2022-08-11T08:23:35.053Z,2.67
2022-08-11T08:26:48.457Z,2.03
2022-08-11T08:30:05.283Z,2.17
2022-08-11T08:33:00.515Z,1.38
2022-08-11T08:36:12.993Z,1.88
2022-08-11T08:39:07.735Z,2.33
2022-08-11T08:42:04.489Z,3.10
2022-08-11T08:45:06.513Z,4.68
2022-08-11T08:48:04.322Z,4.53
2022-08-11T08:51:27.540Z,4.20
2022-08-11T08:54:46.431Z,3.55
2022-08-11T08:57:43.304Z,3.05
2022-08-11T09:00:44.456Z,3.78
2022-08-11T09:04:07.233Z,3.78
2022-08-11T09:06:58.467Z,2.53
2022-08-11T09:09:55.514Z,3.20
2022-08-11T09:12:51.937Z,3.30
2022-08-11T09:15:48.137Z,2.60
2022-08-11T09:18:47.616Z,4.97
2022-08-11T09:22:14.417Z,4.20
2022-08-11T09:25:28.112Z,3.47
2022-08-11T09:28:25.366Z,5.38
2022-08-11T09:34:18.334Z,2.72
2022-08-11T09:37:54.326Z,3.22
2022-08-11T09:40:52.751Z,2.60
2022-08-11T09:44:09.988Z,1.92
2022-08-11T09:47:06.574Z,2.55
2022-08-11T09:50:03.252Z,3.42
2022-08-11T09:53:35.995Z,3.65
2022-08-11T09:56:37.382Z,1.70
2022-08-11T09:59:33.945Z,2.05
2022-08-11T10:02:30.995Z,2.65
2022-08-11T10:05:44.593Z,2.20
2022-08-11T10:08:42.054Z,2.75
2022-08-11T10:11:39.510Z,4.05
2022-08-11T10:14:54.372Z,4.68
2022-08-11T10:18:09.511Z,5.75
2022-08-11T10:21:13.380Z,5.05
2022-08-11T10:24:27.912Z,6.47
2022-08-11T10:27:26.052Z,2.78
2022-08-11T10:30:53.228Z,2.05
2022-08-11T10:34:02.649Z,2.45
2022-08-11T10:36:58.571Z,3.55
2022-08-11T10:39:54.282Z,2.38
2022-08-11T10:43:06.858Z,3.53
2022-08-11T10:46:30.404Z,3.30
2022-08-11T10:49:28.010Z,0.77
2022-08-11T10:55:54.329Z,5.43
2022-08-11T10:58:55.816Z,2.90
2022-08-11T11:01:53.386Z,2.92
2022-08-11T11:05:12.791Z,3.75
2022-08-11T11:08:37.668Z,2.70
2022-08-11T11:11:57.618Z,2.78
2022-08-11T11:15:17.286Z,1.63
2022-08-11T11:18:21.636Z,3.10
2022-08-11T11:21:22.684Z,4.15
2022-08-11T11:24:55.893Z,4.43
2022-08-11T11:28:30.974Z,4.97
2022-08-11T11:32:02.425Z,3.63
2022-08-11T11:35:18.649Z,3.90
2022-08-11T11:38:14.324Z,2.05
2022-08-11T11:41:28.466Z,7.38
2022-08-11T11:44:25.277Z,3.47
2022-08-11T11:47:21.696Z,2.08
2022-08-11T11:50:17.193Z,6.13
2022-08-11T11:53:14.323Z,5.93
2022-08-11T11:56:09.698Z,3.42
2022-08-11T11:59:24.208Z,4.93
2022-08-11T12:02:19.461Z,3.30
2022-08-11T12:05:16.297Z,3.40
2022-08-11T12:08:19.242Z,6.88
2022-08-11T12:11:33.808Z,2.00
2022-08-11T12:14:30.449Z,2.95
2022-08-11T12:17:27.039Z,6.20
2022-08-11T12:20:31.698Z,4.82
2022-08-11T12:23:49.550Z,6.90
2022-08-11T12:27:15.197Z,6.72
2022-08-11T12:30:11.456Z,15.25
2022-08-11T12:33:06.968Z,6.55
2022-08-11T12:36:03.288Z,5.88
2022-08-11T12:39:01.147Z,7.15
2022-08-11T12:42:33.701Z,8.07
2022-08-11T12:45:31.174Z,4.00
2022-08-11T12:49:00.718Z,5.43
2022-08-11T12:52:13.483Z,8.88
2022-08-11T12:55:37.302Z,9.90
2022-08-11T12:58:32.788Z,8.95
2022-08-11T13:01:46.279Z,5.50
2022-08-11T13:04:58.099Z,3.90
2022-08-11T13:07:54.517Z,3.72
2022-08-11T13:11:10.768Z,7.07
2022-08-11T13:14:06.760Z,8.70
2022-08-11T13:17:21.773Z,7.35
2022-08-11T13:20:38.491Z,5.07
2022-08-11T13:23:37.264Z,10.13
2022-08-11T13:26:43.154Z,3.53
2022-08-11T13:29:48.345Z,4.65
2022-08-11T13:32:46.729Z,4.82
2022-08-11T13:35:43.309Z,6.47
2022-08-11T13:38:48.087Z,4.97
2022-08-11T13:41:49.422Z,9.73
2022-08-11T13:44:47.153Z,7.82
2022-08-11T13:47:44.897Z,6.82
2022-08-11T13:51:00.989Z,4.75
2022-08-11T13:53:56.782Z,11.25
2022-08-11T13:57:01.949Z,6.25
2022-08-11T14:00:14.550Z,5.13
2022-08-11T14:03:25.750Z,6.72
2022-08-11T14:06:25.598Z,4.78
2022-08-11T14:09:34.617Z,6.90
2022-08-11T14:12:53.076Z,6.53
2022-08-11T14:15:50.720Z,7.18
2022-08-11T14:18:53.521Z,9.07
2022-08-11T14:22:09.140Z,10.75
2022-08-11T14:25:07.427Z,10.98
2022-08-11T14:28:29.696Z,6.93
2022-08-11T14:31:20.053Z,11.98
2022-08-11T14:34:16.435Z,8.80
2022-08-11T14:37:24.340Z,11.63
2022-08-11T14:40:37.581Z,6.75
2022-08-11T14:44:13.984Z,6.70
2022-08-11T14:47:24.500Z,8.38
2022-08-11T14:50:26.605Z,11.43
2022-08-11T14:53:25.394Z,9.60
2022-08-11T14:56:38.603Z,11.07
2022-08-11T14:59:34.471Z,10.70
2022-08-11T15:02:47.703Z,11.43
2022-08-11T15:05:55.857Z,9.15
2022-08-11T15:08:58.851Z,14.80
2022-08-11T15:12:32.873Z,9.27
2022-08-11T15:15:47.139Z,8.68
2022-08-11T15:18:41.946Z,9.90
2022-08-11T15:21:54.755Z,8.18
2022-08-11T15:24:49.436Z,9.35
2022-08-11T15:28:06.089Z,11.35
2022-08-11T15:31:20.281Z,12.63
2022-08-11T15:34:37.113Z,11.50
2022-08-11T15:37:33.374Z,10.43
2022-08-11T15:40:49.553Z,8.68
2022-08-11T15:44:13.413Z,8.18
2022-08-11T15:47:10.374Z,11.23
2022-08-11T15:50:11.665Z,8.95
2022-08-11T15:53:14.625Z,12.30
2022-08-11T15:56:10.830Z,10.77
2022-08-11T15:59:41.595Z,9.68
2022-08-11T16:02:50.054Z,8.40
2022-08-11T16:05:52.957Z,9.35
2022-08-11T16:08:49.229Z,10.60
2022-08-11T16:11:47.481Z,10.80
2022-08-11T16:15:11.131Z,10.27
2022-08-11T16:18:08.509Z,7.88
2022-08-11T16:21:03.226Z,12.65
2022-08-11T16:24:01.596Z,9.57
2022-08-11T16:27:07.585Z,6.70
2022-08-11T16:30:07.310Z,7.28
2022-08-11T16:33:22.615Z,6.55
2022-08-11T16:36:44.736Z,9.77
2022-08-11T16:39:41.275Z,4.85
2022-08-11T16:43:05.401Z,5.75
2022-08-11T16:46:19.927Z,7.95
2022-08-11T16:49:31.435Z,7.13
2022-08-11T16:52:28.801Z,5.63
2022-08-11T16:55:41.842Z,9.25
2022-08-11T16:58:59.320Z,5.15
2022-08-11T17:02:43.575Z,7.03
2022-08-11T17:06:00.530Z,7.45
2022-08-11T17:09:13.795Z,3.58
2022-08-11T17:12:27.863Z,10.35
2022-08-11T17:15:42.562Z,2.53
2022-08-11T17:18:50.842Z,6.05
2022-08-11T17:22:11.097Z,6.97
2022-08-11T17:25:10.019Z,8.05
2022-08-11T17:28:06.105Z,3.55
2022-08-11T17:31:22.689Z,6.25
2022-08-11T17:34:36.018Z,6.10
2022-08-11T17:37:34.371Z,7.97
2022-08-11T17:40:30.234Z,6.95
2022-08-11T17:43:42.738Z,9.15
2022-08-11T17:46:56.429Z,10.35
2022-08-11T17:49:53.302Z,8.55
2022-08-11T17:53:07.202Z,11.95
2022-08-11T17:56:22.321Z,9.43
2022-08-11T17:59:36.416Z,9.43
2022-08-11T18:02:59.122Z,5.97
2022-08-11T18:05:54.398Z,7.30
2022-08-11T18:09:09.545Z,10.35
2022-08-11T18:12:25.065Z,9.00
2022-08-11T18:15:37.765Z,7.30
2022-08-11T18:19:02.565Z,5.65
2022-08-11T18:22:27.733Z,8.23
2022-08-11T18:25:55.411Z,15.15
2022-08-11T18:29:14.029Z,10.88
2022-08-11T18:32:46.179Z,9.23
2022-08-11T18:36:03.002Z,10.95
2022-08-11T18:39:18.312Z,13.73
2022-08-11T18:42:35.740Z,9.35
2022-08-11T18:45:51.291Z,9.57
2022-08-11T18:49:28.662Z,8.48
2022-08-11T18:53:03.718Z,8.10
2022-08-11T18:56:18.011Z,9.73
2022-08-11T18:59:32.187Z,11.20
2022-08-11T19:02:48.724Z,8.55
2022-08-11T19:06:35.075Z,9.07
2022-08-11T19:09:39.106Z,12.23
2022-08-11T19:12:57.429Z,8.07
2022-08-11T19:19:22.741Z,9.00
2022-08-11T19:22:37.383Z,5.15
2022-08-11T19:25:51.608Z,9.27
2022-08-11T19:29:07.830Z,6.65
2022-08-11T19:32:21.903Z,10.20
2022-08-11T19:35:36.010Z,9.25
2022-08-11T19:38:50.502Z,9.30
2022-08-11T19:42:04.589Z,7.05
2022-08-11T19:45:19.422Z,8.27
2022-08-11T19:48:33.038Z,8.35
2022-08-11T19:51:46.312Z,6.63
2022-08-11T19:55:00.194Z,7.35
2022-08-11T19:58:14.909Z,6.18
2022-08-11T20:01:27.496Z,6.68
2022-08-11T20:04:40.749Z,6.25
2022-08-11T20:07:56.628Z,7.57
2022-08-11T20:11:11.898Z,8.93
2022-08-11T20:14:28.104Z,3.47
2022-08-11T20:17:45.363Z,4.00
2022-08-11T20:20:59.943Z,5.57
2022-08-11T20:24:13.358Z,6.22
2022-08-11T20:27:28.511Z,3.35
2022-08-11T20:30:41.957Z,5.47
2022-08-11T20:33:55.983Z,6.07
2022-08-11T20:37:10.136Z,3.80
2022-08-11T20:40:26.406Z,3.93
2022-08-11T20:44:05.745Z,4.65
2022-08-11T20:47:15.840Z,3.28
2022-08-11T20:50:29.366Z,3.35
2022-08-11T20:53:43.610Z,5.15
2022-08-11T20:56:57.851Z,2.05
2022-08-11T21:00:11.994Z,4.53
2022-08-11T21:03:35.757Z,6.40
2022-08-11T21:06:50.166Z,5.47
2022-08-11T21:10:09.915Z,3.30
2022-08-11T21:13:29.356Z,2.70
2022-08-11T21:16:56.865Z,5.68
2022-08-11T21:20:21.541Z,3.88
2022-08-11T21:23:35.466Z,7.28
2022-08-11T21:26:50.696Z,3.20
2022-08-11T21:30:04.340Z,8.10
2022-08-11T21:33:17.573Z,7.75
2022-08-11T21:36:30.987Z,6.15
2022-08-11T21:39:44.973Z,4.80
2022-08-11T21:43:02.310Z,5.60
2022-08-11T21:46:15.808Z,4.05
2022-08-11T21:49:31.297Z,7.90
2022-08-11T21:52:44.243Z,3.13
2022-08-11T21:55:57.625Z,7.72
2022-08-11T21:59:11.353Z,6.20
2022-08-11T22:02:24.855Z,6.20
2022-08-11T22:05:38.038Z,3.63
2022-08-11T22:08:50.470Z,4.15
2022-08-11T22:12:30.171Z,6.53
2022-08-11T22:15:38.998Z,6.80
2022-08-11T22:18:53.612Z,4.25
2022-08-11T22:22:07.318Z,9.07
2022-08-11T22:25:22.613Z,4.20
2022-08-11T22:28:35.992Z,4.60
2022-08-11T22:31:50.074Z,3.15
2022-08-11T22:35:03.796Z,4.57
2022-08-11T22:38:18.366Z,6.25
2022-08-11T22:41:33.157Z,6.78
2022-08-11T22:44:45.599Z,3.88
2022-08-11T22:47:58.808Z,7.65
2022-08-11T22:51:13.740Z,5.47
2022-08-11T22:54:26.857Z,8.32
2022-08-11T22:57:41.459Z,5.13
2022-08-11T23:01:14.646Z,9.18
2022-08-11T23:04:28.731Z,9.25
2022-08-11T23:07:49.746Z,10.77
2022-08-11T23:11:05.986Z,14.93
2022-08-11T23:14:19.716Z,10.20
2022-08-11T23:17:33.665Z,10.07
2022-08-11T23:20:56.263Z,7.10
2022-08-11T23:24:10.560Z,11.57
2022-08-11T23:27:24.167Z,7.88
2022-08-11T23:30:36.683Z,7.68
2022-08-11T23:33:51.786Z,8.38
2022-08-11T23:37:04.448Z,8.13
2022-08-11T23:40:17.174Z,5.00
2022-08-11T23:43:43.150Z,5.43
2022-08-11T23:46:56.152Z,7.03
2022-08-11T23:50:08.888Z,4.63
2022-08-11T23:53:22.788Z,2.00
2022-08-11T23:56:35.767Z,3.22
2022-08-11T23:59:48.390Z,3.88
